createdAt,value
2019-04-25T00:01:01.172Z,1.70
2019-04-25T00:03:31.918Z,1.60
2019-04-25T00:05:57.909Z,2.50
2019-04-25T00:08:25.366Z,3.33
2019-04-25T00:10:52.819Z,1.70
2019-04-25T00:13:21.727Z,1.75
2019-04-25T00:15:48.098Z,1.42
2019-04-25T00:18:15.263Z,1.90
2019-04-25T00:20:45.173Z,1.27
2019-04-25T00:25:48.120Z,1.63
2019-04-25T00:28:14.744Z,1.50
2019-04-25T00:30:43.488Z,1.08
2019-04-25T00:33:09.679Z,1.40
2019-04-25T00:35:37.145Z,1.62
2019-04-25T00:38:04.594Z,2.75
2019-04-25T00:40:32.071Z,1.55
2019-04-25T00:42:59.518Z,1.30
2019-04-25T00:45:27.019Z,1.40
2019-04-25T00:47:54.493Z,1.50
2019-04-25T00:50:22.018Z,1.52
2019-04-25T00:52:49.408Z,1.60
2019-04-25T00:55:26.139Z,1.40
2019-04-25T00:57:44.801Z,1.30
2019-04-25T01:00:16.056Z,1.55
2019-04-25T01:02:44.170Z,1.33
2019-04-25T01:05:11.651Z,1.52
2019-04-25T01:07:38.494Z,1.20
2019-04-25T01:10:05.937Z,1.08
2019-04-25T01:12:33.557Z,1.60
2019-04-25T01:15:01.668Z,1.90
2019-04-25T01:17:28.510Z,1.15
2019-04-25T01:19:58.013Z,1.65
2019-04-25T01:22:23.452Z,1.30
2019-04-25T01:24:51.445Z,1.45
2019-04-25T01:27:18.425Z,2.03
2019-04-25T01:29:46.328Z,1.50
2019-04-25T01:32:13.949Z,1.83
2019-04-25T01:34:53.793Z,1.65
2019-04-25T01:37:21.036Z,1.55
2019-04-25T01:39:48.937Z,1.55
2019-04-25T01:42:18.107Z,1.50
2019-04-25T01:44:45.579Z,1.55
2019-04-25T01:47:14.086Z,1.62
2019-04-25T01:49:40.559Z,1.80
2019-04-25T01:52:08.023Z,1.90
2019-04-25T01:54:35.467Z,1.35
2019-04-25T01:57:04.369Z,2.20
2019-04-25T01:59:30.429Z,1.80
2019-04-25T02:01:58.684Z,1.45
2019-04-25T02:04:25.443Z,1.73
2019-04-25T02:06:54.360Z,1.95
2019-04-25T02:09:20.386Z,1.65
2019-04-25T02:11:47.843Z,1.75
2019-04-25T02:14:15.299Z,1.58
2019-04-25T02:16:43.933Z,2.00
2019-04-25T02:19:10.260Z,1.62
2019-04-25T02:21:37.725Z,2.65
2019-04-25T02:24:05.649Z,1.30
2019-04-25T02:26:34.081Z,1.10
2019-04-25T02:29:00.554Z,1.83
2019-04-25T02:31:27.681Z,1.48
2019-04-25T02:33:59.670Z,1.73
2019-04-25T02:36:24.658Z,1.52
2019-04-25T02:38:50.175Z,1.20
2019-04-25T02:41:17.622Z,1.12
2019-04-25T02:43:45.359Z,1.23
2019-04-25T02:49:09.948Z,2.62
2019-04-25T02:51:38.353Z,1.48
2019-04-25T02:54:07.908Z,2.17
2019-04-25T02:56:37.727Z,1.95
2019-04-25T02:59:00.870Z,1.25
2019-04-25T03:01:28.327Z,1.15
2019-04-25T03:03:57.463Z,1.52
2019-04-25T03:06:25.041Z,1.23
2019-04-25T03:08:50.846Z,1.23
2019-04-25T03:11:18.304Z,1.45
2019-04-25T03:13:45.743Z,2.30
2019-04-25T03:16:14.043Z,1.75
2019-04-25T03:18:44.232Z,2.50
2019-04-25T03:21:14.191Z,2.05
2019-04-25T03:23:42.181Z,1.80
2019-04-25T03:26:07.219Z,1.40
2019-04-25T03:28:33.980Z,2.30
2019-04-25T03:31:02.139Z,2.10
2019-04-25T03:33:28.790Z,1.60
2019-04-25T03:35:56.225Z,1.73
2019-04-25T03:38:24.290Z,1.52
2019-04-25T03:40:51.177Z,1.73
2019-04-25T03:43:18.629Z,1.65
2019-04-25T03:45:46.070Z,1.50
2019-04-25T03:48:13.943Z,1.50
2019-04-25T03:50:41.212Z,1.20
2019-04-25T03:53:08.711Z,2.10
2019-04-25T03:55:36.171Z,1.55
2019-04-25T03:58:06.653Z,2.13
2019-04-25T04:00:31.167Z,1.35
2019-04-25T04:02:58.637Z,1.50
2019-04-25T04:05:26.095Z,1.55
2019-04-25T04:07:53.619Z,1.43
2019-04-25T04:10:21.231Z,1.30
2019-04-25T04:12:48.531Z,1.50
2019-04-25T04:15:16.082Z,1.73
2019-04-25T04:17:43.851Z,1.50
2019-04-25T04:20:25.654Z,2.47
2019-04-25T04:22:57.674Z,1.77
2019-04-25T04:25:25.134Z,1.93
2019-04-25T04:27:53.803Z,1.65
2019-04-25T04:30:20.066Z,2.65
2019-04-25T04:32:47.701Z,2.23
2019-04-25T04:35:16.124Z,1.95
2019-04-25T04:37:43.154Z,2.80
2019-04-25T04:40:10.158Z,3.00
2019-04-25T04:42:37.594Z,4.62
2019-04-25T04:45:05.039Z,2.97
2019-04-25T04:47:33.262Z,2.80
2019-04-25T04:49:59.991Z,3.20
2019-04-25T04:52:27.441Z,2.70
2019-04-25T04:55:05.373Z,4.55
2019-04-25T04:57:32.260Z,3.50
2019-04-25T04:59:49.896Z,3.10
2019-04-25T05:05:14.442Z,7.80
2019-04-25T05:07:40.145Z,4.30
2019-04-25T05:10:07.630Z,3.50
2019-04-25T05:12:36.358Z,3.22
2019-04-25T05:15:03.837Z,2.87
2019-04-25T05:17:31.311Z,3.12
2019-04-25T05:19:58.817Z,2.83
2019-04-25T05:25:00.115Z,4.90
2019-04-25T05:27:35.848Z,6.32
2019-04-25T05:29:55.069Z,4.70
2019-04-25T05:32:24.131Z,2.95
2019-04-25T05:34:50.040Z,4.25
2019-04-25T05:37:17.608Z,4.75
2019-04-25T05:39:44.983Z,3.83
2019-04-25T05:45:06.524Z,7.20
2019-04-25T05:47:34.144Z,4.00
2019-04-25T05:50:01.617Z,4.28
2019-04-25T05:52:29.070Z,4.32
2019-04-25T05:54:56.726Z,8.68
2019-04-25T05:57:24.999Z,5.53
2019-04-25T05:59:51.678Z,8.48
2019-04-25T06:02:19.490Z,4.50
2019-04-25T06:04:46.694Z,5.32
2019-04-25T06:07:14.880Z,5.10
2019-04-25T06:12:36.861Z,10.83
2019-04-25T06:15:04.632Z,5.40
2019-04-25T06:20:29.292Z,5.70
2019-04-25T06:23:14.559Z,2.80
2019-04-25T06:25:43.801Z,2.95
2019-04-25T06:28:14.148Z,2.90
2019-04-25T06:30:44.205Z,1.80
2019-04-25T06:33:09.900Z,1.65
2019-04-25T06:35:37.374Z,3.08
2019-04-25T06:38:04.888Z,2.30
2019-04-25T06:40:43.612Z,2.05
2019-04-25T06:43:18.612Z,1.70
2019-04-25T06:45:51.820Z,2.25
2019-04-25T06:48:27.173Z,2.72
2019-04-25T06:51:04.428Z,2.12
2019-04-25T06:53:34.608Z,2.20
2019-04-25T06:56:06.437Z,2.40
2019-04-25T06:58:40.928Z,2.50
2019-04-25T07:01:16.799Z,1.45
2019-04-25T07:03:46.056Z,1.62
2019-04-25T07:06:19.243Z,3.00
2019-04-25T07:11:32.429Z,2.42
2019-04-25T07:14:06.125Z,2.65
2019-04-25T07:16:35.680Z,2.75
2019-04-25T07:19:07.266Z,2.42
2019-04-25T07:21:48.160Z,2.08
2019-04-25T07:24:24.834Z,5.28
2019-04-25T07:27:13.762Z,2.35
2019-04-25T07:29:44.186Z,2.30
2019-04-25T07:32:19.127Z,2.15
2019-04-25T07:34:46.644Z,2.45
2019-04-25T07:37:14.105Z,2.62
2019-04-25T07:39:41.590Z,5.80
2019-04-25T07:42:09.095Z,2.65
2019-04-25T07:44:49.303Z,2.65
2019-04-25T07:47:04.128Z,2.50
2019-04-25T07:49:33.060Z,2.97
2019-04-25T07:51:59.991Z,1.90
2019-04-25T07:54:27.868Z,2.60
2019-04-25T07:56:55.163Z,3.30
2019-04-25T07:59:23.735Z,3.67
2019-04-25T08:01:50.074Z,3.08
2019-04-25T08:04:17.605Z,2.75
2019-04-25T08:06:45.090Z,3.70
2019-04-25T08:09:15.448Z,2.78
2019-04-25T08:11:40.104Z,4.75
2019-04-25T08:14:18.354Z,2.97
2019-04-25T08:16:46.573Z,4.75
2019-04-25T08:19:14.037Z,4.30
2019-04-25T08:21:41.572Z,6.72
2019-04-25T08:24:09.207Z,4.80
2019-04-25T08:26:37.518Z,5.95
2019-04-25T08:29:04.201Z,3.58
2019-04-25T08:31:33.881Z,3.25
2019-04-25T08:33:59.184Z,2.35
2019-04-25T08:36:26.932Z,2.62
2019-04-25T08:38:55.214Z,3.25
2019-04-25T08:41:23.923Z,4.00
2019-04-25T08:43:50.264Z,2.92
2019-04-25T08:46:17.732Z,4.93
2019-04-25T08:48:50.681Z,2.37
2019-04-25T08:51:18.171Z,3.35
2019-04-25T08:53:48.438Z,2.37
2019-04-25T08:56:15.930Z,3.65
2019-04-25T08:58:45.359Z,1.77
2019-04-25T09:01:14.113Z,2.53
2019-04-25T09:03:44.332Z,2.10
2019-04-25T09:06:10.810Z,2.20
2019-04-25T09:08:39.358Z,2.35
2019-04-25T09:11:05.735Z,2.40
2019-04-25T09:13:35.831Z,2.40
2019-04-25T09:16:00.717Z,2.65
2019-04-25T09:18:28.226Z,2.78
2019-04-25T09:20:55.675Z,2.55
2019-04-25T09:23:23.664Z,2.78
2019-04-25T09:25:50.663Z,4.05
2019-04-25T09:28:18.207Z,2.50
2019-04-25T09:30:45.981Z,3.87
2019-04-25T09:33:13.343Z,4.00
2019-04-25T09:35:41.627Z,3.08
2019-04-25T09:38:08.145Z,2.40
2019-04-25T09:40:36.116Z,2.17
2019-04-25T09:43:03.630Z,4.93
2019-04-25T09:45:43.965Z,2.22
2019-04-25T09:51:16.801Z,2.60
2019-04-25T09:53:49.610Z,2.25
2019-04-25T09:56:22.002Z,2.55
2019-04-25T09:58:53.758Z,3.70
2019-04-25T10:01:19.618Z,2.75
2019-04-25T10:03:47.386Z,2.47
2019-04-25T10:06:14.722Z,2.97
2019-04-25T10:08:43.631Z,5.28
2019-04-25T10:11:09.694Z,3.75
2019-04-25T10:13:37.597Z,2.70
2019-04-25T10:16:05.514Z,2.90
2019-04-25T10:18:33.455Z,2.30
2019-04-25T10:21:00.636Z,2.40
2019-04-25T10:23:28.118Z,2.15
2019-04-25T10:25:55.745Z,2.60
2019-04-25T10:28:23.435Z,2.75
2019-04-25T10:30:50.714Z,3.30
2019-04-25T10:33:18.175Z,2.65
2019-04-25T10:35:52.141Z,4.18
2019-04-25T10:45:34.190Z,2.65
2019-04-25T10:48:01.693Z,3.17
2019-04-25T10:50:29.142Z,5.30
2019-04-25T10:52:56.678Z,4.40
2019-04-25T10:55:24.139Z,4.45
2019-04-25T10:57:51.640Z,4.93
2019-04-25T11:00:20.616Z,4.00
2019-04-25T11:02:48.095Z,4.95
2019-04-25T11:05:15.597Z,3.40
2019-04-25T11:07:43.044Z,3.70
2019-04-25T11:10:10.496Z,3.83
2019-04-25T11:12:38.253Z,3.78
2019-04-25T11:15:05.772Z,4.78
2019-04-25T11:17:33.895Z,5.05
2019-04-25T11:20:00.806Z,3.80
2019-04-25T11:22:28.288Z,4.07
2019-04-25T11:24:55.748Z,2.55
2019-04-25T11:27:23.956Z,2.70
2019-04-25T11:29:50.785Z,2.92
2019-04-25T11:32:19.889Z,3.17
2019-04-25T11:34:47.218Z,2.67
2019-04-25T11:37:14.717Z,3.37
2019-04-25T11:39:45.757Z,3.00
2019-04-25T11:42:13.118Z,1.67
2019-04-25T11:44:39.642Z,1.37
2019-04-25T11:47:08.587Z,1.85
2019-04-25T11:49:34.657Z,3.25
2019-04-25T11:52:03.411Z,3.80
2019-04-25T11:54:29.646Z,3.60
2019-04-25T11:56:57.104Z,2.75
2019-04-25T11:59:24.659Z,3.15
2019-04-25T12:01:52.313Z,2.50
2019-04-25T12:04:19.738Z,3.42
2019-04-25T12:06:47.616Z,2.60
2019-04-25T12:09:14.723Z,2.85
2019-04-25T12:11:44.723Z,4.15
2019-04-25T12:14:09.698Z,3.60
2019-04-25T12:16:37.263Z,3.22
2019-04-25T12:19:04.893Z,2.05
2019-04-25T12:21:32.229Z,2.80
2019-04-25T12:24:01.808Z,2.33
2019-04-25T12:26:27.195Z,2.62
2019-04-25T12:28:56.407Z,1.85
2019-04-25T12:31:23.751Z,2.65
2019-04-25T12:33:50.031Z,2.20
2019-04-25T12:36:17.244Z,2.28
2019-04-25T12:38:46.047Z,3.20
2019-04-25T12:41:12.203Z,2.60
2019-04-25T12:43:39.744Z,2.97
2019-04-25T12:46:07.371Z,3.17
2019-04-25T12:48:34.843Z,3.45
2019-04-25T12:51:03.234Z,4.15
2019-04-25T12:53:29.835Z,2.72
2019-04-25T12:55:57.286Z,2.62
2019-04-25T12:58:24.751Z,3.25
2019-04-25T13:00:54.943Z,2.95
2019-04-25T13:03:20.115Z,2.22
2019-04-25T13:05:47.571Z,2.65
2019-04-25T13:08:15.066Z,4.18
2019-04-25T13:10:44.303Z,3.78
2019-04-25T13:13:10.232Z,2.20
2019-04-25T13:15:37.718Z,2.55
2019-04-25T13:18:05.160Z,4.10
2019-04-25T13:20:32.627Z,2.85
2019-04-25T13:23:00.582Z,2.00
2019-04-25T13:33:20.120Z,1.85
2019-04-25T13:35:54.257Z,2.47
2019-04-25T13:38:20.070Z,2.60
2019-04-25T13:40:47.531Z,3.62
2019-04-25T13:43:15.144Z,3.87
2019-04-25T13:45:42.603Z,3.92
2019-04-25T13:48:10.164Z,2.17
2019-04-25T13:50:37.618Z,2.20
2019-04-25T13:53:05.077Z,5.20
2019-04-25T13:55:32.531Z,3.20
2019-04-25T13:58:00.055Z,2.70
2019-04-25T14:00:27.746Z,2.35
2019-04-25T14:02:55.039Z,3.10
2019-04-25T14:05:24.226Z,2.50
2019-04-25T14:07:50.029Z,2.85
2019-04-25T14:10:17.478Z,2.05
2019-04-25T14:12:44.978Z,2.45
2019-04-25T14:15:13.875Z,3.12
2019-04-25T14:17:45.458Z,3.40
2019-04-25T14:20:16.928Z,1.40
2019-04-25T14:22:45.439Z,1.50
2019-04-25T14:25:11.887Z,1.42
2019-04-25T14:27:39.371Z,1.20
2019-04-25T14:30:06.862Z,1.25
2019-04-25T14:32:35.170Z,1.33
2019-04-25T14:35:03.312Z,0.80
2019-04-25T14:37:32.931Z,1.10
2019-04-25T14:39:56.901Z,1.73
2019-04-25T14:42:24.561Z,1.52
2019-04-25T14:44:51.943Z,1.23
2019-04-25T14:47:19.478Z,2.62
2019-04-25T14:49:46.943Z,1.48
2019-04-25T14:52:14.411Z,2.15
2019-04-25T14:54:45.549Z,2.55
2019-04-25T14:57:13.938Z,1.17
2019-04-25T14:59:41.399Z,1.12
2019-04-25T15:02:08.899Z,1.10
2019-04-25T15:04:36.358Z,2.50
2019-04-25T15:07:04.053Z,1.75
2019-04-25T15:09:32.261Z,1.42
2019-04-25T15:11:59.015Z,1.70
2019-04-25T15:14:26.939Z,1.25
2019-04-25T15:16:53.996Z,1.60
2019-04-25T15:19:21.439Z,1.70
2019-04-25T15:21:48.899Z,1.65
2019-04-25T15:24:16.387Z,1.62
2019-04-25T15:26:44.152Z,1.40
2019-04-25T15:29:16.437Z,1.62
2019-04-25T15:31:55.201Z,1.75
2019-04-25T15:34:11.917Z,1.10
2019-04-25T15:36:39.377Z,1.02
2019-04-25T15:39:12.240Z,1.98
2019-04-25T15:41:40.215Z,1.90
2019-04-25T15:44:13.196Z,1.23
2019-04-25T15:46:40.682Z,1.27
2019-04-25T15:49:08.194Z,1.10
2019-04-25T15:51:35.680Z,1.10
2019-04-25T15:54:03.174Z,1.00
2019-04-25T15:56:30.634Z,1.73
2019-04-25T15:58:58.165Z,1.95
2019-04-25T16:01:26.370Z,1.77
2019-04-25T16:03:53.208Z,1.42
2019-04-25T16:06:20.660Z,1.45
2019-04-25T16:08:48.127Z,1.02
2019-04-25T16:11:15.679Z,1.75
2019-04-25T16:13:43.211Z,1.60
2019-04-25T16:16:10.728Z,1.27
2019-04-25T16:18:38.457Z,1.15
2019-04-25T16:21:05.951Z,1.40
2019-04-25T16:23:34.320Z,2.37
2019-04-25T16:26:01.053Z,1.15
2019-04-25T16:28:28.841Z,1.40
2019-04-25T16:30:56.030Z,1.40
2019-04-25T16:33:23.475Z,1.30
2019-04-25T16:35:50.923Z,1.40
2019-04-25T16:38:18.368Z,1.40
2019-04-25T16:40:45.941Z,1.48
2019-04-25T16:43:13.553Z,0.90
2019-04-25T16:45:41.374Z,1.40
2019-04-25T16:48:08.553Z,1.42
2019-04-25T16:50:36.507Z,2.22
2019-04-25T16:53:03.743Z,2.47
2019-04-25T16:55:31.745Z,1.90
2019-04-25T16:57:58.666Z,3.10
2019-04-25T17:03:24.230Z,2.03
2019-04-25T17:05:51.742Z,1.75
2019-04-25T17:08:19.185Z,1.90
2019-04-25T17:10:46.736Z,2.67
2019-04-25T17:13:14.304Z,1.75
2019-04-25T17:18:36.108Z,2.80
2019-04-25T17:21:02.981Z,3.35
2019-04-25T17:23:31.173Z,3.22
2019-04-25T17:25:58.140Z,2.12
2019-04-25T17:28:25.624Z,1.70
2019-04-25T17:30:53.081Z,1.62
2019-04-25T17:33:21.232Z,1.80
2019-04-25T17:36:04.576Z,3.37
2019-04-25T17:38:37.512Z,1.87
2019-04-25T17:41:04.220Z,1.23
2019-04-25T17:43:31.985Z,1.50
2019-04-25T17:45:59.263Z,1.27
2019-04-25T17:48:26.765Z,1.37
2019-04-25T17:50:54.219Z,1.98
2019-04-25T17:53:22.465Z,1.58
2019-04-25T17:55:49.916Z,1.35
2019-04-25T17:58:17.354Z,1.35
2019-04-25T18:00:45.054Z,0.90
2019-04-25T18:03:12.431Z,2.10
2019-04-25T18:05:40.048Z,1.30
2019-04-25T18:08:07.492Z,1.60
2019-04-25T18:10:35.618Z,1.17
2019-04-25T18:13:02.530Z,1.90
2019-04-25T18:15:29.978Z,0.90
2019-04-25T18:17:57.443Z,0.90
2019-04-25T18:20:24.882Z,1.15
2019-04-25T18:22:53.178Z,1.35
2019-04-25T18:25:26.325Z,1.00
2019-04-25T18:27:59.532Z,1.58
2019-04-25T18:30:26.982Z,1.30
2019-04-25T18:35:49.489Z,5.33
2019-04-25T18:41:12.231Z,2.40
2019-04-25T18:43:40.156Z,1.27
2019-04-25T18:46:07.667Z,1.92
2019-04-25T18:48:36.885Z,1.67
2019-04-25T18:51:02.649Z,1.00
2019-04-25T18:53:34.741Z,1.23
2019-04-25T18:56:07.030Z,1.52
2019-04-25T18:58:40.299Z,1.40
2019-04-25T19:01:08.273Z,1.60
2019-04-25T19:03:38.279Z,1.35
2019-04-25T19:06:05.159Z,1.45
2019-04-25T19:08:32.772Z,3.00
2019-04-25T19:11:00.310Z,1.40
2019-04-25T19:13:27.740Z,1.30
2019-04-25T19:15:55.203Z,1.95
2019-04-25T19:18:22.671Z,1.30
2019-04-25T19:20:50.191Z,1.60
2019-04-25T19:23:17.642Z,1.75
2019-04-25T19:25:45.836Z,2.40
2019-04-25T19:28:12.634Z,2.15
2019-04-25T19:30:40.995Z,1.40
2019-04-25T19:33:07.757Z,1.50
2019-04-25T19:35:35.146Z,1.85
2019-04-25T19:38:02.606Z,1.25
2019-04-25T19:40:32.591Z,1.95
2019-04-25T19:43:00.143Z,2.72
2019-04-25T19:45:27.663Z,1.55
2019-04-25T19:47:55.118Z,1.65
2019-04-25T19:50:22.585Z,1.45
2019-04-25T19:52:50.052Z,2.00
2019-04-25T19:55:17.559Z,1.75
2019-04-25T19:57:46.108Z,2.55
2019-04-25T20:00:12.605Z,1.80
2019-04-25T20:05:38.702Z,2.50
2019-04-25T20:08:24.998Z,1.27
2019-04-25T20:10:56.269Z,1.20
2019-04-25T20:13:23.815Z,1.25
2019-04-25T20:15:51.736Z,1.00
2019-04-25T20:18:19.771Z,1.20
2019-04-25T20:20:47.805Z,1.40
2019-04-25T20:23:14.704Z,2.80
2019-04-25T20:25:42.229Z,1.70
2019-04-25T20:28:09.804Z,1.00
2019-04-25T20:30:37.473Z,1.15
2019-04-25T20:33:04.922Z,0.90
2019-04-25T20:35:32.398Z,0.90
2019-04-25T20:37:59.936Z,0.90
2019-04-25T20:40:27.397Z,0.80
2019-04-25T20:42:54.849Z,1.12
2019-04-25T20:45:22.435Z,0.80
2019-04-25T20:47:50.089Z,1.02
2019-04-25T20:50:17.531Z,0.90
2019-04-25T21:09:55.440Z,1.00
2019-04-25T21:12:22.912Z,1.00
2019-04-25T21:14:50.668Z,1.12
2019-04-25T21:17:32.967Z,1.25
2019-04-25T21:20:00.423Z,1.08
2019-04-25T21:22:27.884Z,0.93
2019-04-25T21:24:55.843Z,1.00
2019-04-25T21:27:23.031Z,0.90
2019-04-25T21:29:52.123Z,0.80
2019-04-25T21:32:19.333Z,0.60
2019-04-25T21:34:46.805Z,0.95
2019-04-25T21:37:14.301Z,0.70
2019-04-25T21:39:47.762Z,0.60
2019-04-25T22:06:46.056Z,0.95
2019-04-25T22:09:14.919Z,0.65
2019-04-25T22:31:23.596Z,0.90
2019-04-25T22:53:36.216Z,0.60
2019-04-25T23:00:57.755Z,0.70
2019-04-25T23:03:27.051Z,0.70
2019-04-25T23:05:54.578Z,0.70
2019-04-25T23:08:22.087Z,0.60
2019-04-25T23:10:49.714Z,0.60
2019-04-25T23:30:28.325Z,0.60
2019-04-25T23:57:29.194Z,0.70
